LRFT - airport unknown

Compiled: 18:00:53 on 22/07/2018

Latest METAR/SPECI Reports

METAR/SPECI not found in database.

Previous reports

Latest TAF report

TAF LRFT 201100Z 2012/2112 30012KT 9999 SCT070 PROB40 TEMPO 2012/2017 3000 TSRA BR SCT020 BKN050CB TEMPO 2023/2103 5000 TSRA BR BKN020 BKN050CB OVC060=

Valid WARNINGS

No valid warnings for LRFT